createdAt,value
2018-07-30T00:01:15.081Z,7.50
2018-07-30T00:04:19.348Z,6.60
2018-07-30T00:07:23.556Z,5.97
2018-07-30T00:10:27.768Z,7.27
2018-07-30T00:13:32.000Z,9.87
2018-07-30T00:16:36.256Z,11.23
2018-07-30T00:19:40.501Z,9.03
2018-07-30T00:22:44.728Z,9.63
2018-07-30T00:25:49.016Z,7.80
2018-07-30T00:28:53.409Z,6.97
2018-07-30T00:31:57.652Z,9.77
2018-07-30T00:35:01.935Z,9.50
2018-07-30T00:38:06.169Z,10.37
2018-07-30T00:41:10.172Z,12.07
2018-07-30T00:44:14.448Z,11.80
2018-07-30T00:47:18.684Z,4.60
2018-07-30T00:50:22.963Z,7.13
2018-07-30T00:53:27.221Z,10.80
2018-07-30T00:56:31.494Z,5.97
2018-07-30T00:59:35.732Z,7.73
2018-07-30T01:02:39.961Z,7.67
2018-07-30T01:05:44.334Z,7.50
2018-07-30T01:08:48.651Z,6.93
2018-07-30T01:11:52.900Z,7.57
2018-07-30T01:14:57.242Z,9.07
2018-07-30T01:18:01.466Z,8.43
2018-07-30T01:21:05.712Z,7.13
2018-07-30T01:24:09.956Z,7.43
2018-07-30T01:27:14.216Z,11.30
2018-07-30T01:30:18.465Z,10.30
2018-07-30T01:33:22.713Z,10.40
2018-07-30T01:36:26.921Z,7.43
2018-07-30T01:39:31.177Z,9.10
2018-07-30T01:42:35.695Z,6.33
2018-07-30T01:45:39.968Z,6.73
2018-07-30T01:48:44.202Z,7.37
2018-07-30T01:51:48.429Z,8.10
2018-07-30T01:54:53.140Z,6.90
2018-07-30T01:57:57.473Z,6.60
2018-07-30T02:01:01.725Z,9.10
2018-07-30T02:04:05.964Z,8.50
2018-07-30T02:07:10.302Z,7.00
2018-07-30T02:10:14.545Z,6.63
2018-07-30T02:13:18.792Z,7.97
2018-07-30T02:16:23.030Z,9.53
2018-07-30T02:19:27.293Z,5.93
2018-07-30T02:22:31.516Z,7.60
2018-07-30T02:25:35.826Z,6.53
2018-07-30T02:28:40.084Z,6.73
2018-07-30T02:31:44.316Z,5.87
2018-07-30T02:34:48.601Z,7.80
2018-07-30T02:37:52.849Z,8.23
2018-07-30T02:40:57.151Z,9.50
2018-07-30T02:44:01.382Z,5.83
2018-07-30T02:47:05.644Z,6.37
2018-07-30T02:50:09.877Z,5.77
2018-07-30T02:53:14.131Z,6.13
2018-07-30T02:56:18.419Z,7.80
2018-07-30T02:59:22.647Z,6.63
2018-07-30T03:02:26.939Z,6.17
2018-07-30T03:05:31.186Z,5.57
2018-07-30T03:08:35.520Z,6.27
2018-07-30T03:11:40.441Z,8.00
2018-07-30T03:14:44.840Z,7.17
2018-07-30T03:17:49.307Z,9.53
2018-07-30T03:20:53.584Z,8.13
2018-07-30T03:23:57.872Z,8.57
2018-07-30T03:27:02.125Z,8.00
2018-07-30T03:30:08.838Z,5.93
2018-07-30T03:33:13.109Z,6.67
2018-07-30T03:36:17.375Z,10.50
2018-07-30T03:39:21.591Z,8.97
2018-07-30T03:42:25.868Z,11.97
2018-07-30T03:45:30.088Z,7.57
2018-07-30T03:48:34.349Z,8.27
2018-07-30T03:51:38.628Z,8.27
2018-07-30T03:54:42.925Z,7.80
2018-07-30T03:57:47.213Z,10.37
2018-07-30T04:00:51.473Z,7.53
2018-07-30T04:03:55.924Z,8.83
2018-07-30T04:07:00.181Z,7.50
2018-07-30T04:10:04.529Z,6.90
2018-07-30T04:13:08.824Z,8.47
2018-07-30T04:16:13.049Z,7.57
2018-07-30T04:19:17.357Z,7.23
2018-07-30T04:22:21.576Z,12.53
2018-07-30T04:25:25.830Z,12.80
2018-07-30T04:28:30.089Z,8.80
2018-07-30T04:31:34.457Z,8.17
2018-07-30T04:34:38.689Z,9.47
2018-07-30T04:37:42.981Z,8.77
2018-07-30T04:40:47.228Z,8.13
2018-07-30T04:43:51.575Z,9.23
2018-07-30T04:46:55.760Z,7.60
2018-07-30T04:50:00.065Z,8.47
2018-07-30T04:53:04.325Z,8.53
2018-07-30T04:56:08.596Z,10.13
2018-07-30T04:59:12.843Z,10.07
2018-07-30T05:02:17.105Z,6.87
2018-07-30T05:05:21.365Z,8.10
2018-07-30T05:08:25.629Z,8.83
2018-07-30T05:11:29.870Z,12.43
2018-07-30T05:14:34.115Z,10.37
2018-07-30T05:17:38.357Z,10.60
2018-07-30T05:20:42.629Z,7.50
2018-07-30T05:23:46.902Z,8.17
2018-07-30T05:26:51.152Z,8.07
2018-07-30T05:29:55.378Z,8.87
2018-07-30T05:32:59.637Z,8.57
2018-07-30T05:36:03.869Z,8.90
2018-07-30T05:39:10.321Z,7.87
2018-07-30T05:42:14.594Z,10.30
2018-07-30T05:45:18.830Z,10.67
2018-07-30T05:48:23.077Z,9.17
2018-07-30T05:51:27.360Z,12.43
2018-07-30T05:54:31.597Z,9.50
2018-07-30T05:57:35.877Z,10.07
2018-07-30T06:00:40.114Z,8.40
2018-07-30T06:03:44.375Z,7.67
2018-07-30T06:06:48.665Z,11.83
2018-07-30T06:09:52.895Z,9.07
2018-07-30T06:12:57.192Z,8.13
2018-07-30T06:16:01.461Z,8.77
2018-07-30T06:19:05.786Z,11.07
2018-07-30T06:22:10.053Z,12.03
2018-07-30T06:25:14.333Z,10.67
2018-07-30T06:28:18.607Z,8.13
2018-07-30T06:31:22.872Z,8.13
2018-07-30T06:34:27.145Z,11.80
2018-07-30T06:37:31.460Z,11.73
2018-07-30T06:40:35.696Z,9.03
2018-07-30T06:43:39.989Z,9.53
2018-07-30T06:46:44.243Z,10.93
2018-07-30T06:49:48.521Z,7.97
2018-07-30T06:52:52.788Z,7.83
2018-07-30T06:55:57.098Z,7.80
2018-07-30T06:59:01.369Z,11.03
2018-07-30T07:02:05.861Z,7.83
2018-07-30T07:05:11.361Z,10.20
2018-07-30T07:08:15.656Z,10.40
2018-07-30T07:11:19.950Z,9.17
2018-07-30T07:14:24.251Z,7.77
2018-07-30T07:17:28.527Z,9.27
2018-07-30T07:20:32.870Z,15.13
2018-07-30T07:23:37.144Z,8.73
2018-07-30T07:26:41.429Z,6.87
2018-07-30T07:29:45.726Z,7.87
2018-07-30T07:32:49.997Z,8.37
2018-07-30T07:35:54.374Z,14.50
2018-07-30T07:38:58.620Z,9.77
2018-07-30T07:42:02.945Z,12.13
2018-07-30T07:45:07.745Z,10.60
2018-07-30T07:48:12.064Z,8.97
2018-07-30T07:51:16.334Z,13.30
2018-07-30T07:54:20.617Z,8.53
2018-07-30T07:57:25.221Z,10.27
2018-07-30T08:00:29.522Z,15.27
2018-07-30T08:03:33.786Z,10.60
2018-07-30T08:06:38.105Z,8.30
2018-07-30T08:09:42.417Z,7.97
2018-07-30T08:12:46.701Z,7.67
2018-07-30T08:15:51.005Z,10.40
2018-07-30T08:18:55.257Z,9.67
2018-07-30T08:21:59.542Z,7.67
2018-07-30T08:25:03.633Z,8.00
2018-07-30T08:28:07.890Z,6.50
2018-07-30T08:31:12.185Z,11.90
2018-07-30T08:34:16.502Z,6.97
2018-07-30T08:37:20.797Z,9.43
2018-07-30T08:40:25.093Z,8.57
2018-07-30T08:43:29.402Z,7.40
2018-07-30T08:46:33.780Z,6.97
2018-07-30T08:49:38.052Z,7.73
2018-07-30T08:52:42.386Z,8.27
2018-07-30T08:55:46.672Z,8.30
2018-07-30T08:58:51.364Z,6.50
2018-07-30T09:01:55.368Z,11.37
2018-07-30T09:04:59.625Z,6.43
2018-07-30T09:08:03.924Z,6.80
2018-07-30T09:11:08.193Z,6.80
2018-07-30T09:14:12.464Z,4.10
2018-07-30T09:17:16.789Z,5.90
2018-07-30T09:20:20.816Z,5.87
2018-07-30T09:23:25.115Z,4.53
2018-07-30T09:26:29.357Z,5.40
2018-07-30T09:29:33.596Z,6.63
2018-07-30T09:32:37.853Z,5.57
2018-07-30T09:35:42.133Z,7.73
2018-07-30T09:38:46.484Z,5.10
2018-07-30T09:41:50.709Z,5.50
2018-07-30T09:44:55.028Z,7.30
2018-07-30T09:47:59.442Z,7.50
2018-07-30T09:51:03.729Z,8.07
2018-07-30T09:54:08.079Z,10.60
2018-07-30T09:57:12.329Z,7.30
2018-07-30T10:00:20.699Z,8.23
2018-07-30T10:03:24.977Z,7.37
2018-07-30T10:06:29.310Z,6.97
2018-07-30T10:09:33.589Z,6.40
2018-07-30T10:12:37.858Z,7.97
2018-07-30T10:15:42.124Z,5.30
2018-07-30T10:18:46.426Z,5.73
2018-07-30T10:21:50.705Z,10.07
2018-07-30T10:24:54.988Z,23.53
2018-07-30T10:27:59.317Z,24.93
2018-07-30T10:31:03.617Z,22.93
2018-07-30T10:34:07.878Z,11.03
2018-07-30T10:37:12.161Z,11.40
2018-07-30T10:40:16.489Z,6.90
2018-07-30T10:43:20.701Z,6.27
2018-07-30T10:46:25.019Z,6.47
2018-07-30T10:49:29.285Z,9.00
2018-07-30T10:52:33.608Z,6.30
2018-07-30T10:55:37.877Z,5.73
2018-07-30T10:58:42.221Z,7.47
2018-07-30T11:01:46.264Z,6.60
2018-07-30T11:04:50.540Z,5.43
2018-07-30T11:07:54.835Z,8.13
2018-07-30T11:10:59.081Z,3.77
2018-07-30T11:14:03.350Z,2.87
2018-07-30T11:17:07.644Z,5.27
2018-07-30T11:20:11.941Z,4.80
2018-07-30T11:23:16.236Z,6.80
2018-07-30T11:26:20.486Z,7.03
2018-07-30T11:29:24.764Z,5.10
2018-07-30T11:32:29.086Z,7.23
2018-07-30T11:35:33.397Z,3.07
2018-07-30T11:38:37.677Z,5.73
2018-07-30T11:41:42.226Z,2.10
2018-07-30T11:44:46.476Z,4.80
2018-07-30T11:47:50.753Z,5.07
2018-07-30T11:50:55.014Z,3.53
2018-07-30T11:53:59.324Z,4.67
2018-07-30T11:57:03.554Z,6.20
2018-07-30T12:00:08.060Z,5.47
2018-07-30T12:03:12.335Z,3.27
2018-07-30T12:06:16.608Z,3.67
2018-07-30T12:09:20.896Z,4.30
2018-07-30T12:12:25.191Z,5.17
2018-07-30T12:15:29.469Z,4.73
2018-07-30T12:18:33.730Z,2.47
2018-07-30T12:21:38.072Z,6.20
2018-07-30T12:24:42.359Z,3.10
2018-07-30T12:27:46.621Z,4.10
2018-07-30T12:30:50.917Z,5.20
2018-07-30T12:33:55.547Z,10.90
2018-07-30T12:36:59.785Z,3.03
2018-07-30T12:40:04.091Z,8.40
2018-07-30T12:43:08.356Z,2.97
2018-07-30T12:46:12.670Z,3.67
2018-07-30T12:49:16.973Z,4.07
2018-07-30T12:52:21.257Z,5.60
2018-07-30T12:55:25.596Z,4.37
2018-07-30T12:58:29.865Z,8.73
2018-07-30T13:01:34.174Z,4.00
2018-07-30T13:04:38.440Z,6.47
2018-07-30T13:07:42.755Z,6.17
2018-07-30T13:10:47.037Z,4.23
2018-07-30T13:13:51.412Z,3.87
2018-07-30T13:16:55.621Z,2.43
2018-07-30T13:20:00.025Z,1.97
2018-07-30T13:23:04.078Z,5.93
2018-07-30T13:26:08.324Z,4.87
2018-07-30T13:29:13.340Z,2.93
2018-07-30T13:32:17.576Z,2.53
2018-07-30T13:35:21.842Z,4.37
2018-07-30T13:38:26.091Z,4.87
2018-07-30T13:41:30.326Z,3.33
2018-07-30T13:44:34.634Z,2.23
2018-07-30T13:47:38.937Z,2.73
2018-07-30T13:50:43.152Z,3.73
2018-07-30T13:53:47.353Z,3.33
2018-07-30T13:56:51.590Z,2.40
2018-07-30T13:59:55.850Z,2.80
2018-07-30T14:03:00.063Z,3.03
2018-07-30T14:06:04.421Z,3.70
2018-07-30T14:09:11.130Z,3.60
2018-07-30T14:12:15.381Z,2.73
2018-07-30T14:15:19.657Z,4.77
2018-07-30T14:18:23.941Z,5.47
2018-07-30T14:21:28.164Z,5.20
2018-07-30T14:24:32.409Z,3.00
2018-07-30T14:27:36.636Z,3.60
2018-07-30T14:30:40.909Z,3.17
2018-07-30T14:33:45.151Z,3.33
2018-07-30T14:36:49.500Z,4.67
2018-07-30T14:39:54.034Z,5.23
2018-07-30T14:42:58.292Z,5.67
2018-07-30T14:46:02.556Z,4.17
2018-07-30T14:49:06.809Z,5.73
2018-07-30T14:52:11.065Z,6.93
2018-07-30T14:55:15.339Z,6.33
2018-07-30T14:58:19.597Z,6.17
2018-07-30T15:01:23.909Z,3.93
2018-07-30T15:04:28.226Z,5.10
2018-07-30T15:07:32.529Z,6.70
2018-07-30T15:10:36.868Z,5.90
2018-07-30T15:13:41.138Z,2.57
2018-07-30T15:16:45.435Z,5.83
2018-07-30T15:19:49.714Z,11.27
2018-07-30T15:22:54.017Z,16.73
2018-07-30T15:25:58.273Z,3.67
2018-07-30T15:29:02.586Z,4.80
2018-07-30T15:32:07.032Z,6.87
2018-07-30T15:35:11.265Z,3.90
2018-07-30T15:38:15.457Z,7.37
2018-07-30T15:41:19.708Z,4.27
2018-07-30T15:44:23.900Z,4.23
2018-07-30T15:47:28.141Z,2.80
2018-07-30T15:50:32.336Z,4.00
2018-07-30T15:53:36.597Z,4.43
2018-07-30T15:56:40.969Z,2.63
2018-07-30T15:59:45.198Z,4.87
2018-07-30T16:02:49.452Z,5.47
2018-07-30T16:05:53.769Z,5.07
2018-07-30T16:08:57.985Z,5.80
2018-07-30T16:12:02.187Z,10.20
2018-07-30T16:15:08.139Z,3.73
2018-07-30T16:18:12.370Z,2.10
2018-07-30T16:21:16.584Z,2.77
2018-07-30T16:24:20.772Z,4.57
2018-07-30T16:27:25.073Z,2.50
2018-07-30T16:30:29.302Z,3.13
2018-07-30T16:33:33.557Z,3.07
2018-07-30T16:36:37.796Z,2.87
2018-07-30T16:39:42.012Z,2.93
2018-07-30T16:42:46.298Z,3.23
2018-07-30T16:45:50.544Z,2.03
2018-07-30T16:48:54.770Z,4.83
2018-07-30T16:51:58.993Z,5.40
2018-07-30T16:55:03.245Z,3.67
2018-07-30T16:58:07.481Z,2.63
2018-07-30T17:01:11.736Z,5.67
2018-07-30T17:04:15.978Z,5.57
2018-07-30T17:07:20.229Z,3.47
2018-07-30T17:10:24.460Z,5.40
2018-07-30T17:13:28.766Z,4.77
2018-07-30T17:16:33.061Z,4.23
2018-07-30T17:19:37.355Z,2.10
2018-07-30T17:22:42.363Z,4.63
2018-07-30T17:25:46.616Z,4.00
2018-07-30T17:28:50.863Z,3.07
2018-07-30T17:31:55.092Z,3.87
2018-07-30T17:34:59.277Z,3.87
2018-07-30T17:38:03.517Z,6.67
2018-07-30T17:41:07.511Z,6.97
2018-07-30T17:44:11.733Z,7.20
2018-07-30T17:47:15.924Z,7.20
2018-07-30T17:50:20.131Z,5.10
2018-07-30T17:53:24.341Z,7.47
2018-07-30T17:56:28.573Z,5.50
2018-07-30T17:59:32.752Z,6.20
2018-07-30T18:02:36.948Z,7.03
2018-07-30T18:05:41.165Z,6.60
2018-07-30T18:08:45.372Z,11.13
2018-07-30T18:11:49.606Z,7.63
2018-07-30T18:14:53.819Z,3.83
2018-07-30T18:17:58.018Z,7.53
2018-07-30T18:21:02.237Z,8.17
2018-07-30T18:24:06.465Z,5.37
2018-07-30T18:27:10.642Z,6.93
2018-07-30T18:30:14.838Z,4.33
2018-07-30T18:33:19.030Z,6.73
2018-07-30T18:36:23.242Z,9.70
2018-07-30T18:39:27.467Z,9.13
2018-07-30T18:42:31.673Z,6.47
2018-07-30T18:45:35.881Z,5.60
2018-07-30T18:48:40.101Z,10.13
2018-07-30T18:51:44.293Z,6.20
2018-07-30T18:54:48.561Z,8.57
2018-07-30T18:57:52.760Z,8.90
2018-07-30T19:00:56.968Z,6.17
2018-07-30T19:04:01.148Z,7.10
2018-07-30T19:07:05.372Z,14.57
2018-07-30T19:10:09.565Z,7.37
2018-07-30T19:13:13.804Z,5.93
2018-07-30T19:16:18.010Z,7.13
2018-07-30T19:19:22.956Z,6.20
2018-07-30T19:22:27.158Z,8.60
2018-07-30T19:25:31.389Z,8.83
2018-07-30T19:28:35.592Z,9.97
2018-07-30T19:31:39.794Z,10.53
2018-07-30T19:34:43.800Z,10.50
2018-07-30T19:37:48.005Z,7.27
2018-07-30T19:40:52.217Z,8.27
2018-07-30T19:43:56.479Z,10.40
2018-07-30T19:47:00.678Z,8.80
2018-07-30T19:50:05.032Z,8.30
2018-07-30T19:53:09.245Z,7.60
2018-07-30T19:56:13.457Z,10.27
2018-07-30T19:59:17.681Z,7.83
2018-07-30T20:02:21.880Z,6.43
2018-07-30T20:05:26.076Z,8.53
2018-07-30T20:08:30.304Z,7.37
2018-07-30T20:11:34.529Z,7.93
2018-07-30T20:14:38.746Z,7.57
2018-07-30T20:17:43.000Z,6.50
2018-07-30T20:20:47.180Z,5.10
2018-07-30T20:23:51.380Z,7.90
2018-07-30T20:26:55.579Z,5.30
2018-07-30T20:29:59.800Z,6.53
2018-07-30T20:33:04.018Z,6.37
2018-07-30T20:36:08.213Z,9.63
2018-07-30T20:39:12.428Z,7.80
2018-07-30T20:42:16.634Z,4.77
2018-07-30T20:45:20.865Z,5.30
2018-07-30T20:48:25.065Z,6.37
2018-07-30T20:51:29.272Z,10.63
2018-07-30T20:54:33.501Z,6.23
2018-07-30T20:57:37.693Z,6.77
2018-07-30T21:00:41.913Z,7.03
2018-07-30T21:03:46.106Z,7.67
2018-07-30T21:06:50.106Z,8.23
2018-07-30T21:09:54.313Z,4.97
2018-07-30T21:12:58.537Z,7.10
2018-07-30T21:16:02.768Z,5.67
2018-07-30T21:19:06.992Z,6.13
2018-07-30T21:22:11.185Z,8.30
2018-07-30T21:25:15.416Z,8.80
2018-07-30T21:28:19.619Z,7.23
2018-07-30T21:31:23.812Z,7.60
2018-07-30T21:34:28.077Z,8.50
2018-07-30T21:37:32.294Z,6.67
2018-07-30T21:40:36.493Z,10.63
2018-07-30T21:43:40.694Z,5.90
2018-07-30T21:46:44.890Z,4.80
2018-07-30T21:49:49.093Z,9.77
2018-07-30T21:52:53.296Z,8.63
2018-07-30T21:55:57.525Z,6.80
2018-07-30T21:59:01.730Z,4.47
2018-07-30T22:02:06.289Z,4.93
2018-07-30T22:05:14.600Z,11.50
2018-07-30T22:08:18.838Z,8.10
2018-07-30T22:11:23.045Z,5.53
2018-07-30T22:14:27.245Z,7.77
2018-07-30T22:17:31.452Z,5.63
2018-07-30T22:20:35.675Z,7.67
2018-07-30T22:23:39.896Z,6.67
2018-07-30T22:26:44.109Z,5.53
2018-07-30T22:29:48.336Z,9.00
2018-07-30T22:32:52.512Z,7.67
2018-07-30T22:35:56.745Z,7.30
2018-07-30T22:39:00.961Z,9.63
2018-07-30T22:42:04.949Z,8.93
2018-07-30T22:45:09.169Z,11.17
2018-07-30T22:48:13.368Z,8.73
2018-07-30T22:51:17.597Z,10.50
2018-07-30T22:54:21.814Z,10.67
2018-07-30T22:57:26.013Z,9.07
2018-07-30T23:00:30.253Z,10.60
2018-07-30T23:03:34.476Z,9.83
2018-07-30T23:06:38.724Z,12.50
2018-07-30T23:09:42.951Z,12.60
2018-07-30T23:12:47.160Z,8.37
2018-07-30T23:15:51.392Z,8.47
2018-07-30T23:18:55.764Z,9.10
2018-07-30T23:21:59.960Z,9.37
2018-07-30T23:25:04.200Z,10.37
2018-07-30T23:28:08.428Z,10.50
2018-07-30T23:31:12.636Z,11.20
2018-07-30T23:34:16.841Z,10.63
2018-07-30T23:37:21.157Z,11.57
2018-07-30T23:40:25.253Z,10.40
2018-07-30T23:43:30.291Z,10.73
2018-07-30T23:46:34.509Z,11.20
2018-07-30T23:49:38.761Z,9.83
2018-07-30T23:52:42.941Z,13.57
2018-07-30T23:55:47.149Z,10.77
2018-07-30T23:58:51.384Z,9.67
